createdAt,value
2023-03-27T00:00:04.640Z,56.88
2023-03-27T00:01:04.353Z,58.35
2023-03-27T00:02:04.383Z,56.90
2023-03-27T00:03:04.469Z,57.21
2023-03-27T00:04:04.393Z,62.57
2023-03-27T00:05:04.581Z,60.00
2023-03-27T00:06:04.376Z,65.88
2023-03-27T00:07:04.548Z,64.22
2023-03-27T00:08:04.554Z,64.02
2023-03-27T00:09:04.501Z,62.16
2023-03-27T00:10:05.252Z,61.96
2023-03-27T00:11:04.499Z,61.24
2023-03-27T00:12:04.376Z,62.16
2023-03-27T00:13:04.376Z,67.00
2023-03-27T00:14:04.452Z,65.98
2023-03-27T00:15:04.438Z,67.76
2023-03-27T00:16:05.090Z,63.71
2023-03-27T00:17:04.413Z,62.50
2023-03-27T00:18:04.477Z,64.87
2023-03-27T00:19:04.372Z,66.28
2023-03-27T00:20:03.677Z,66.18
2023-03-27T00:21:03.644Z,67.73
2023-03-27T00:22:03.650Z,70.00
2023-03-27T00:23:04.346Z,70.86
2023-03-27T00:24:04.299Z,69.79
2023-03-27T00:25:03.643Z,70.62
2023-03-27T00:26:04.326Z,71.55
2023-03-27T00:27:04.277Z,69.69
2023-03-27T00:28:04.315Z,67.42
2023-03-27T00:29:04.252Z,70.41
2023-03-27T00:30:03.652Z,70.51
2023-03-27T00:31:04.253Z,75.49
2023-03-27T00:32:04.227Z,74.88
2023-03-27T00:33:04.284Z,76.73
2023-03-27T00:34:04.156Z,75.18
2023-03-27T00:35:04.186Z,79.41
2023-03-27T00:36:04.227Z,77.66
2023-03-27T00:37:04.142Z,81.99
2023-03-27T00:38:04.142Z,81.27
2023-03-27T00:39:04.100Z,80.86
2023-03-27T00:40:04.106Z,81.37
2023-03-27T00:41:04.120Z,79.52
2023-03-27T00:42:04.080Z,82.51
2023-03-27T00:43:04.059Z,83.06
2023-03-27T00:44:04.064Z,85.02
2023-03-27T00:45:04.787Z,82.96
2023-03-27T00:46:04.069Z,81.51
2023-03-27T00:47:04.025Z,82.55
2023-03-27T00:48:04.035Z,79.97
2023-03-27T00:49:03.982Z,86.16
2023-03-27T00:50:03.968Z,83.48
2023-03-27T00:51:04.642Z,82.86
2023-03-27T00:52:04.620Z,85.95
2023-03-27T00:53:03.931Z,89.36
2023-03-27T00:54:03.183Z,87.92
2023-03-27T00:55:03.890Z,83.37
2023-03-27T00:56:04.574Z,85.44
2023-03-27T00:57:03.230Z,87.81
2023-03-27T00:58:03.859Z,82.55
2023-03-27T00:59:03.850Z,84.92
2023-03-27T01:00:03.232Z,90.28
2023-03-27T01:01:03.853Z,86.16
2023-03-27T01:02:03.418Z,84.30
2023-03-27T01:03:03.953Z,82.65
2023-03-27T01:04:03.797Z,85.85
2023-03-27T01:05:03.425Z,86.36
2023-03-27T01:06:03.761Z,87.40
2023-03-27T01:07:03.754Z,87.40
2023-03-27T01:08:03.407Z,85.85
2023-03-27T01:09:03.704Z,89.77
2023-03-27T01:10:03.137Z,86.71
2023-03-27T01:11:03.685Z,88.47
2023-03-27T01:12:03.715Z,90.53
2023-03-27T01:13:03.227Z,91.05
2023-03-27T01:14:03.690Z,90.02
2023-03-27T01:15:04.322Z,93.73
2023-03-27T01:16:03.348Z,90.22
2023-03-27T01:17:03.604Z,91.46
2023-03-27T01:18:03.442Z,94.04
2023-03-27T01:19:03.587Z,91.77
2023-03-27T01:20:04.309Z,92.50
2023-03-27T01:21:03.429Z,93.43
2023-03-27T01:22:03.549Z,94.35
2023-03-27T01:23:04.223Z,94.77
2023-03-27T01:24:03.437Z,92.91
2023-03-27T01:25:03.489Z,95.18
2023-03-27T01:26:03.444Z,96.36
2023-03-27T01:27:04.172Z,93.16
2023-03-27T01:28:03.466Z,96.05
2023-03-27T01:29:02.712Z,94.50
2023-03-27T01:30:04.162Z,96.67
2023-03-27T01:31:04.157Z,94.71
2023-03-27T01:32:03.423Z,96.98
2023-03-27T01:33:04.156Z,98.53
2023-03-27T01:34:04.123Z,98.74
2023-03-27T01:35:03.724Z,96.05
2023-03-27T01:36:04.096Z,96.15
2023-03-27T01:37:04.069Z,98.01
2023-03-27T01:38:04.054Z,96.47
2023-03-27T01:39:04.042Z,95.43
2023-03-27T01:40:04.035Z,99.99
2023-03-27T01:41:04.000Z,99.46
2023-03-27T01:42:03.268Z,97.39
2023-03-27T01:43:03.993Z,99.99
2023-03-27T01:44:03.970Z,98.32
2023-03-27T01:45:03.236Z,97.81
2023-03-27T01:46:03.940Z,99.25
2023-03-27T01:47:03.241Z,99.98
2023-03-27T01:48:02.523Z,99.99
2023-03-27T01:49:03.190Z,99.46
2023-03-27T01:50:03.142Z,99.99
2023-03-27T01:51:03.830Z,99.99
2023-03-27T01:52:03.136Z,99.56
2023-03-27T01:53:02.395Z,99.87
2023-03-27T01:54:03.114Z,99.46
2023-03-27T01:55:03.814Z,99.61
2023-03-27T01:56:03.075Z,99.99
2023-03-27T01:57:03.124Z,99.99
2023-03-27T01:58:03.738Z,99.99
2023-03-27T01:59:03.041Z,99.92
2023-03-27T02:00:17.930Z,99.99
2023-03-27T02:01:05.001Z,99.99
2023-03-27T02:02:03.020Z,99.99
2023-03-27T02:03:03.027Z,99.99
2023-03-27T02:04:02.972Z,99.99
2023-03-27T02:05:02.995Z,99.99
2023-03-27T02:06:02.924Z,99.30
2023-03-27T02:07:02.927Z,99.99
2023-03-27T02:08:02.924Z,99.99
2023-03-27T02:09:02.471Z,99.99
2023-03-27T02:10:03.572Z,99.99
2023-03-27T02:11:02.858Z,99.99
2023-03-27T02:12:02.873Z,99.99
2023-03-27T02:13:02.879Z,99.99
2023-03-27T02:14:02.844Z,99.99
2023-03-27T02:15:23.848Z,99.99
2023-03-27T02:16:03.859Z,99.99
2023-03-27T02:17:02.802Z,99.99
2023-03-27T02:18:02.823Z,99.99
2023-03-27T02:19:02.778Z,99.99
2023-03-27T02:23:32.600Z,99.99
2023-03-27T02:24:31.398Z,99.99
2023-03-27T02:25:31.153Z,99.99
2023-03-27T02:26:32.068Z,99.99
2023-03-27T02:27:31.357Z,99.99
2023-03-27T02:28:32.062Z,99.99
2023-03-27T02:29:31.368Z,99.99
2023-03-27T02:30:32.049Z,99.99
2023-03-27T02:31:33.996Z,99.99
2023-03-27T02:32:32.059Z,99.99
2023-03-27T02:33:31.321Z,99.99
2023-03-27T02:34:32.012Z,99.99
2023-03-27T02:35:31.269Z,99.99
2023-03-27T02:36:31.218Z,99.99
2023-03-27T02:37:32.266Z,99.99
2023-03-27T02:38:31.209Z,99.99
2023-03-27T02:39:31.198Z,99.99
2023-03-27T02:40:31.198Z,99.99
2023-03-27T02:41:31.151Z,99.99
2023-03-27T02:42:31.162Z,99.99
2023-03-27T02:43:31.169Z,99.99
2023-03-27T02:44:31.804Z,99.99
2023-03-27T02:45:31.141Z,99.99
2023-03-27T02:46:31.080Z,98.56
2023-03-27T02:47:31.143Z,99.99
2023-03-27T02:48:30.495Z,99.99
2023-03-27T02:49:31.060Z,99.99
2023-03-27T02:50:31.055Z,99.99
2023-03-27T02:51:31.009Z,99.99
2023-03-27T02:52:31.256Z,99.99
2023-03-27T02:53:31.689Z,98.56
2023-03-27T02:54:31.006Z,99.99
2023-03-27T02:55:30.981Z,98.66
2023-03-27T02:56:30.514Z,99.99
2023-03-27T02:57:30.963Z,97.32
2023-03-27T02:58:30.985Z,99.99
2023-03-27T02:59:31.587Z,99.99
2023-03-27T03:00:30.929Z,98.15
2023-03-27T03:01:30.910Z,99.99
2023-03-27T03:02:30.962Z,97.01
2023-03-27T03:03:30.923Z,95.25
2023-03-27T03:04:30.422Z,99.99
2023-03-27T03:05:30.853Z,99.99
2023-03-27T03:06:30.833Z,99.99
2023-03-27T03:07:30.823Z,99.99
2023-03-27T03:08:30.707Z,99.99
2023-03-27T03:09:31.544Z,99.99
2023-03-27T03:10:30.785Z,99.99
2023-03-27T03:11:31.453Z,98.19
2023-03-27T03:12:30.526Z,96.85
2023-03-27T03:13:31.424Z,97.57
2023-03-27T03:14:30.733Z,97.78
2023-03-27T03:15:30.189Z,96.85
2023-03-27T03:16:31.422Z,96.95
2023-03-27T03:17:30.714Z,96.64
2023-03-27T03:18:30.674Z,97.20
2023-03-27T03:19:30.663Z,98.34
2023-03-27T03:20:30.531Z,98.03
2023-03-27T03:21:31.332Z,98.96
2023-03-27T03:22:30.624Z,98.24
2023-03-27T03:23:30.610Z,99.99
2023-03-27T03:24:30.600Z,97.25
2023-03-27T03:25:30.583Z,97.25
2023-03-27T03:26:30.566Z,93.41
2023-03-27T03:27:30.553Z,92.07
2023-03-27T03:28:29.811Z,92.80
2023-03-27T03:29:30.537Z,88.34
2023-03-27T03:30:30.560Z,90.00
2023-03-27T03:31:29.805Z,87.04
2023-03-27T03:32:30.616Z,90.77
2023-03-27T03:33:30.472Z,85.27
2023-03-27T03:34:30.490Z,88.18
2023-03-27T03:35:30.494Z,90.45
2023-03-27T03:36:30.433Z,85.17
2023-03-27T03:37:31.162Z,85.58
2023-03-27T03:38:30.415Z,86.55
2023-03-27T03:39:31.166Z,91.22
2023-03-27T03:40:30.382Z,85.83
2023-03-27T03:41:30.372Z,87.70
2023-03-27T03:42:30.594Z,90.29
2023-03-27T03:43:30.385Z,87.90
2023-03-27T03:44:30.346Z,94.12
2023-03-27T03:45:30.315Z,88.21
2023-03-27T03:46:30.332Z,88.63
2023-03-27T03:47:30.284Z,95.00
2023-03-27T03:48:30.493Z,89.81
2023-03-27T03:49:30.266Z,96.24
2023-03-27T03:50:30.265Z,93.33
2023-03-27T03:51:30.233Z,92.30
2023-03-27T03:52:30.207Z,92.51
2023-03-27T03:53:30.222Z,93.85
2023-03-27T03:54:30.192Z,97.28
2023-03-27T03:55:30.171Z,93.70
2023-03-27T03:56:30.187Z,99.40
2023-03-27T03:57:30.116Z,97.74
2023-03-27T03:58:34.676Z,98.88
2023-03-27T03:59:31.132Z,99.19
2023-03-27T04:00:30.118Z,99.99
2023-03-27T04:01:30.126Z,98.26
2023-03-27T04:02:30.205Z,97.53
2023-03-27T04:03:30.134Z,97.12
2023-03-27T04:04:30.090Z,98.20
2023-03-27T04:05:30.044Z,97.37
2023-03-27T04:06:30.044Z,99.03
2023-03-27T04:07:29.985Z,97.58
2023-03-27T04:08:29.997Z,98.20
2023-03-27T04:09:30.652Z,98.20
2023-03-27T04:10:29.965Z,99.96
2023-03-27T04:11:30.632Z,99.99
2023-03-27T04:12:29.915Z,99.99
2023-03-27T04:13:29.952Z,99.99
2023-03-27T04:14:29.906Z,98.82
2023-03-27T04:15:29.897Z,99.99
2023-03-27T04:16:30.704Z,99.99
2023-03-27T04:17:29.926Z,98.55
2023-03-27T04:18:29.898Z,98.55
2023-03-27T04:19:29.854Z,99.18
2023-03-27T04:20:29.833Z,99.80
2023-03-27T04:21:29.856Z,99.99
2023-03-27T04:22:29.590Z,99.99
2023-03-27T04:23:29.570Z,99.99
2023-03-27T04:24:29.773Z,99.99
2023-03-27T04:25:29.781Z,99.99
2023-03-27T04:26:29.936Z,99.99
2023-03-27T04:27:29.776Z,99.99
2023-03-27T04:28:29.590Z,99.99
2023-03-27T04:29:29.706Z,99.99
2023-03-27T04:30:29.696Z,99.99
2023-03-27T04:31:29.709Z,99.99
2023-03-27T04:32:29.683Z,99.99
2023-03-27T04:33:30.596Z,99.99
2023-03-27T04:34:29.666Z,99.99
2023-03-27T04:35:29.141Z,99.99
2023-03-27T04:36:31.217Z,99.99
2023-03-27T04:37:29.601Z,99.99
2023-03-27T04:38:29.818Z,99.99
2023-03-27T04:39:29.625Z,99.99
2023-03-27T04:40:29.592Z,99.99
2023-03-27T04:41:30.228Z,99.99
2023-03-27T04:42:29.311Z,99.99
2023-03-27T04:43:29.527Z,99.99
2023-03-27T04:44:30.193Z,99.99
2023-03-27T04:45:29.500Z,99.99
2023-03-27T04:46:29.531Z,99.99
2023-03-27T04:47:29.509Z,99.99
2023-03-27T04:48:29.432Z,99.99
2023-03-27T04:49:29.455Z,99.99
2023-03-27T04:50:29.432Z,99.99
2023-03-27T04:51:29.424Z,99.99
2023-03-27T04:52:30.126Z,99.99
2023-03-27T04:53:30.214Z,99.99
2023-03-27T04:54:30.105Z,99.99
2023-03-27T04:55:29.377Z,99.99
2023-03-27T04:56:29.352Z,99.99
2023-03-27T04:57:29.348Z,99.99
2023-03-27T04:58:29.388Z,99.99
2023-03-27T04:59:29.357Z,99.99
2023-03-27T05:00:29.976Z,99.99
2023-03-27T05:01:29.363Z,99.99
2023-03-27T05:02:29.322Z,99.99
2023-03-27T05:03:29.308Z,99.99
2023-03-27T05:04:29.260Z,99.99
2023-03-27T05:05:29.242Z,99.99
2023-03-27T05:06:29.218Z,99.99
2023-03-27T05:07:29.222Z,99.99
2023-03-27T05:08:29.176Z,99.99
2023-03-27T05:09:29.189Z,99.99
2023-03-27T05:10:29.183Z,99.99
2023-03-27T05:11:29.366Z,99.99
2023-03-27T05:12:29.176Z,99.99
2023-03-27T05:13:29.118Z,99.99
2023-03-27T05:14:29.108Z,99.99
2023-03-27T05:15:29.089Z,99.99
2023-03-27T05:16:29.178Z,99.99
2023-03-27T05:17:29.097Z,99.99
2023-03-27T05:18:29.028Z,99.99
2023-03-27T05:19:29.072Z,99.99
2023-03-27T05:20:29.038Z,99.99
2023-03-27T05:21:29.016Z,99.99
2023-03-27T05:22:29.257Z,99.99
2023-03-27T05:23:28.971Z,99.99
2023-03-27T05:24:28.971Z,99.99
2023-03-27T05:25:28.989Z,99.99
2023-03-27T05:26:29.628Z,99.99
2023-03-27T05:27:28.926Z,99.99
2023-03-27T05:28:28.897Z,99.99
2023-03-27T05:29:28.939Z,99.99
2023-03-27T05:30:28.958Z,99.99
2023-03-27T05:31:28.901Z,99.99
2023-03-27T05:32:28.671Z,99.99
2023-03-27T05:33:28.821Z,99.99
2023-03-27T05:34:28.658Z,99.51
2023-03-27T05:35:28.874Z,99.99
2023-03-27T05:36:28.808Z,99.99
2023-03-27T05:37:28.814Z,99.99
2023-03-27T05:38:28.756Z,99.99
2023-03-27T05:39:28.643Z,99.99
2023-03-27T05:40:28.653Z,99.99
2023-03-27T05:41:28.740Z,99.99
2023-03-27T05:42:28.738Z,99.99
2023-03-27T05:43:28.701Z,99.99
2023-03-27T05:44:28.932Z,99.99
2023-03-27T05:45:28.732Z,99.99
2023-03-27T05:46:28.744Z,99.99
2023-03-27T05:47:28.683Z,99.99
2023-03-27T05:48:27.929Z,99.99
2023-03-27T05:49:28.644Z,99.99
2023-03-27T05:50:28.634Z,99.99
2023-03-27T05:51:28.609Z,99.99
2023-03-27T05:52:28.932Z,99.99
2023-03-27T05:53:29.263Z,99.99
2023-03-27T05:54:28.571Z,99.99
2023-03-27T05:55:28.731Z,99.99
2023-03-27T05:56:27.914Z,99.99
2023-03-27T05:57:28.552Z,99.99
2023-03-27T05:58:28.521Z,99.99
2023-03-27T05:59:28.479Z,99.99
2023-03-27T06:00:28.621Z,99.99
2023-03-27T06:01:28.471Z,99.99
2023-03-27T06:02:28.506Z,99.99
2023-03-27T06:03:28.583Z,99.99
2023-03-27T06:04:28.530Z,99.99
2023-03-27T06:05:28.419Z,99.99
2023-03-27T06:06:29.151Z,99.99
2023-03-27T06:07:28.389Z,99.99
2023-03-27T06:08:28.378Z,99.99
2023-03-27T06:09:28.354Z,99.99
2023-03-27T06:10:28.359Z,99.99
2023-03-27T06:11:28.352Z,99.99
2023-03-27T06:12:28.337Z,99.99
2023-03-27T06:13:28.314Z,99.99
2023-03-27T06:14:28.282Z,99.99
2023-03-27T06:15:28.417Z,99.99
2023-03-27T06:16:28.335Z,99.99
2023-03-27T06:17:29.025Z,99.99
2023-03-27T06:18:28.283Z,99.99
2023-03-27T06:19:28.215Z,99.99
2023-03-27T06:20:28.229Z,99.99
2023-03-27T06:21:28.237Z,99.99
2023-03-27T06:22:28.245Z,99.99
2023-03-27T06:23:28.861Z,99.99
2023-03-27T06:24:28.174Z,99.99
2023-03-27T06:25:28.842Z,99.99
2023-03-27T06:26:28.840Z,99.99
2023-03-27T06:27:28.148Z,99.99
2023-03-27T06:28:28.165Z,99.99
2023-03-27T06:29:28.083Z,99.99
2023-03-27T06:30:28.107Z,99.99
2023-03-27T06:31:28.124Z,99.99
2023-03-27T06:32:28.099Z,99.99
2023-03-27T06:33:28.063Z,99.99
2023-03-27T06:34:28.017Z,99.99
2023-03-27T06:35:28.020Z,99.99
2023-03-27T06:36:27.744Z,99.99
2023-03-27T06:37:28.005Z,99.99
2023-03-27T06:38:27.991Z,99.99
2023-03-27T06:39:28.710Z,99.99
2023-03-27T06:40:28.224Z,99.99
2023-03-27T06:41:27.954Z,99.99
2023-03-27T06:42:27.936Z,99.99
2023-03-27T06:43:27.682Z,99.99
2023-03-27T06:44:27.687Z,99.99
2023-03-27T06:45:27.708Z,99.99
2023-03-27T06:46:42.786Z,99.99
2023-03-27T06:47:28.911Z,99.99
2023-03-27T06:48:27.890Z,99.99
2023-03-27T06:49:27.823Z,99.99
2023-03-27T06:50:27.849Z,99.99
2023-03-27T06:51:27.291Z,99.58
2023-03-27T06:52:27.347Z,99.99
2023-03-27T06:53:28.834Z,99.99
2023-03-27T06:54:27.756Z,99.99
2023-03-27T06:55:27.088Z,97.67
2023-03-27T06:56:28.424Z,99.99
2023-03-27T06:57:27.739Z,99.99
2023-03-27T06:58:27.582Z,99.99
2023-03-27T06:59:27.173Z,99.99
2023-03-27T07:00:27.755Z,99.99
2023-03-27T07:01:27.640Z,99.79
2023-03-27T07:02:27.693Z,99.99
2023-03-27T07:03:27.673Z,99.99
2023-03-27T07:04:28.374Z,99.99
2023-03-27T07:05:28.350Z,99.99
2023-03-27T07:06:27.837Z,99.69
2023-03-27T07:07:27.585Z,99.99
2023-03-27T07:08:28.311Z,99.99
2023-03-27T07:09:28.306Z,99.23
2023-03-27T07:10:28.285Z,99.64
2023-03-27T07:11:30.646Z,95.61
2023-03-27T07:12:28.275Z,98.50
2023-03-27T07:13:28.231Z,96.91
2023-03-27T07:14:28.239Z,96.08
2023-03-27T07:15:28.204Z,95.15
2023-03-27T07:16:27.652Z,97.32
2023-03-27T07:17:34.885Z,99.99
2023-03-27T07:18:28.461Z,96.34
2023-03-27T07:19:27.413Z,96.76
2023-03-27T07:20:27.470Z,99.96
2023-03-27T07:21:27.400Z,92.42
2023-03-27T07:22:27.395Z,96.03
2023-03-27T07:23:27.370Z,94.44
2023-03-27T07:24:27.357Z,97.08
2023-03-27T07:25:27.322Z,91.40
2023-03-27T07:26:27.344Z,94.89
2023-03-27T07:27:27.316Z,77.42
2023-03-27T07:28:27.354Z,73.16
2023-03-27T07:29:27.306Z,67.60
2023-03-27T07:30:27.244Z,75.67
2023-03-27T07:31:40.328Z,68.90
2023-03-27T07:32:36.680Z,71.30
2023-03-27T07:33:28.333Z,78.97
2023-03-27T07:34:27.212Z,76.07
2023-03-27T07:35:27.207Z,70.72
2023-03-27T07:36:27.878Z,72.24
2023-03-27T07:37:27.193Z,63.79
2023-03-27T07:38:27.171Z,62.59
2023-03-27T07:39:27.173Z,60.49
2023-03-27T07:40:38.838Z,61.10
2023-03-27T07:41:28.130Z,60.69
2023-03-27T07:42:27.108Z,58.95
2023-03-27T07:43:27.109Z,59.85
2023-03-27T07:44:27.129Z,61.81
2023-03-27T07:45:27.073Z,65.44
2023-03-27T07:46:27.078Z,71.58
2023-03-27T07:47:27.075Z,73.78
2023-03-27T07:48:27.032Z,72.37
2023-03-27T07:49:39.287Z,74.46
2023-03-27T07:50:28.696Z,73.85
2023-03-27T07:51:26.988Z,81.48
2023-03-27T07:52:26.762Z,89.28
2023-03-27T07:53:33.345Z,74.57
2023-03-27T07:54:27.950Z,86.22
2023-03-27T07:55:26.939Z,77.70
2023-03-27T07:56:26.931Z,81.48
2023-03-27T07:57:27.010Z,80.82
2023-03-27T07:58:27.131Z,76.83
2023-03-27T07:59:26.331Z,70.48
2023-03-27T08:00:27.554Z,70.92
2023-03-27T08:01:26.853Z,72.99
2023-03-27T08:02:26.749Z,73.81
2023-03-27T08:03:26.840Z,74.22
2023-03-27T08:04:26.874Z,64.97
2023-03-27T08:05:26.772Z,62.29
2023-03-27T08:06:26.822Z,57.59
2023-03-27T08:07:26.034Z,57.25
2023-03-27T08:08:26.759Z,55.41
2023-03-27T08:09:26.783Z,58.56
2023-03-27T08:10:26.718Z,59.77
2023-03-27T08:11:30.582Z,61.44
2023-03-27T08:12:27.622Z,61.40
2023-03-27T08:13:26.694Z,62.97
2023-03-27T08:14:26.672Z,67.83
2023-03-27T08:15:26.645Z,69.65
2023-03-27T08:16:26.675Z,69.13
2023-03-27T08:17:27.504Z,73.77
2023-03-27T08:18:26.646Z,67.58
2023-03-27T08:19:26.017Z,65.22
2023-03-27T08:20:26.558Z,64.61
2023-03-27T08:21:26.584Z,68.66
2023-03-27T08:22:27.252Z,72.78
2023-03-27T08:23:26.548Z,71.06
2023-03-27T08:24:26.534Z,70.28
2023-03-27T08:25:27.209Z,62.24
2023-03-27T08:26:26.550Z,64.48
2023-03-27T08:27:25.753Z,62.66
2023-03-27T08:28:26.476Z,59.26
2023-03-27T08:29:26.461Z,60.31
2023-03-27T08:30:26.440Z,60.45
2023-03-27T08:31:26.501Z,58.75
2023-03-27T08:32:26.442Z,58.80
2023-03-27T08:33:26.416Z,59.58
2023-03-27T08:34:26.394Z,62.02
2023-03-27T08:35:25.716Z,60.37
2023-03-27T08:36:26.371Z,62.46
2023-03-27T08:37:26.365Z,61.63
2023-03-27T08:38:27.134Z,63.24
2023-03-27T08:39:26.315Z,66.39
2023-03-27T08:40:26.412Z,68.66
2023-03-27T08:41:26.302Z,67.86
2023-03-27T08:42:26.276Z,67.55
2023-03-27T08:43:25.543Z,68.27
2023-03-27T08:44:26.251Z,66.80
2023-03-27T08:45:26.940Z,65.43
2023-03-27T08:46:26.323Z,64.83
2023-03-27T08:47:26.236Z,59.62
2023-03-27T08:48:26.195Z,60.80
2023-03-27T08:49:26.265Z,60.03
2023-03-27T08:50:26.159Z,60.21
2023-03-27T08:51:25.442Z,59.67
2023-03-27T08:52:26.152Z,60.17
2023-03-27T08:53:29.018Z,55.46
2023-03-27T08:54:26.154Z,54.21
2023-03-27T08:55:26.118Z,52.25
2023-03-27T08:56:26.085Z,50.66
2023-03-27T08:57:25.805Z,52.52
2023-03-27T08:58:25.785Z,50.13
2023-03-27T08:59:25.423Z,47.54
2023-03-27T09:00:26.017Z,47.01
2023-03-27T09:01:26.457Z,47.90
2023-03-27T09:02:25.850Z,48.34
2023-03-27T09:03:26.108Z,44.20
2023-03-27T09:04:25.984Z,43.81
2023-03-27T09:05:25.940Z,44.50
2023-03-27T09:06:25.968Z,41.80
2023-03-27T09:07:25.196Z,42.84
2023-03-27T09:08:25.283Z,40.17
2023-03-27T09:09:25.916Z,41.42
2023-03-27T09:10:25.874Z,39.21
2023-03-27T09:11:25.375Z,38.75
2023-03-27T09:12:26.579Z,39.59
2023-03-27T09:13:25.861Z,36.90
2023-03-27T09:14:25.954Z,37.42
2023-03-27T09:15:25.097Z,39.61
2023-03-27T09:16:25.866Z,38.55
2023-03-27T09:17:25.873Z,38.93
2023-03-27T09:18:25.565Z,39.70
2023-03-27T09:19:25.827Z,40.09
2023-03-27T09:20:25.770Z,42.90
2023-03-27T09:21:25.741Z,42.05
2023-03-27T09:22:26.412Z,44.40
2023-03-27T09:23:26.449Z,47.96
2023-03-27T09:24:26.449Z,49.74
2023-03-27T09:25:26.446Z,47.72
2023-03-27T09:26:26.424Z,49.46
2023-03-27T09:27:26.380Z,51.12
2023-03-27T09:28:26.365Z,51.65
2023-03-27T09:29:26.358Z,50.37
2023-03-27T09:30:25.648Z,47.75
2023-03-27T09:31:25.680Z,46.55
2023-03-27T09:32:26.355Z,44.81
2023-03-27T09:33:26.581Z,42.57
2023-03-27T09:34:25.559Z,43.04
2023-03-27T09:35:25.601Z,43.14
2023-03-27T09:36:25.518Z,40.24
2023-03-27T09:37:25.519Z,42.21
2023-03-27T09:38:25.500Z,43.37
2023-03-27T09:39:25.494Z,45.70
2023-03-27T09:40:26.149Z,48.77
2023-03-27T09:41:25.440Z,50.87
2023-03-27T09:42:25.461Z,50.71
2023-03-27T09:43:25.431Z,51.76
2023-03-27T09:44:25.559Z,53.12
2023-03-27T09:45:25.422Z,55.08
2023-03-27T09:46:25.393Z,55.18
2023-03-27T09:47:24.869Z,54.07
2023-03-27T09:48:25.367Z,53.97
2023-03-27T09:49:25.394Z,54.77
2023-03-27T09:50:27.109Z,55.38
2023-03-27T09:51:25.309Z,57.00
2023-03-27T09:52:25.309Z,56.92
2023-03-27T09:53:25.295Z,57.56
2023-03-27T09:54:25.306Z,53.90
2023-03-27T09:55:25.971Z,56.97
2023-03-27T09:56:25.226Z,53.03
2023-03-27T09:57:25.249Z,54.49
2023-03-27T09:58:25.228Z,54.85
2023-03-27T09:59:25.242Z,54.77
2023-03-27T10:00:25.214Z,56.54
2023-03-27T10:01:25.214Z,57.31
2023-03-27T10:02:25.206Z,57.98
2023-03-27T10:03:24.578Z,60.37
2023-03-27T10:04:24.840Z,63.28
2023-03-27T10:05:25.133Z,64.03
2023-03-27T10:06:25.100Z,66.50
2023-03-27T10:07:25.786Z,62.66
2023-03-27T10:08:26.758Z,64.79
2023-03-27T10:09:24.853Z,64.97
2023-03-27T10:10:24.854Z,75.01
2023-03-27T10:11:24.843Z,58.40
2023-03-27T10:12:25.028Z,58.81
2023-03-27T10:13:25.022Z,53.19
2023-03-27T10:14:25.025Z,52.70
2023-03-27T10:15:25.003Z,50.89
2023-03-27T10:16:25.759Z,47.62
2023-03-27T10:17:24.989Z,50.09
2023-03-27T10:18:24.860Z,49.01
2023-03-27T10:19:24.875Z,47.61
2023-03-27T10:20:24.916Z,48.47
2023-03-27T10:21:24.885Z,52.14
2023-03-27T10:22:24.150Z,54.33
2023-03-27T10:23:24.958Z,57.43
2023-03-27T10:24:24.874Z,62.62
2023-03-27T10:25:24.852Z,66.45
2023-03-27T10:26:24.116Z,71.00
2023-03-27T10:27:24.133Z,69.80
2023-03-27T10:28:24.808Z,67.85
2023-03-27T10:29:25.472Z,67.44
2023-03-27T10:30:24.827Z,75.67
2023-03-27T10:31:24.773Z,74.29
2023-03-27T10:32:25.506Z,67.79
2023-03-27T10:33:24.741Z,69.23
2023-03-27T10:34:25.390Z,65.77
2023-03-27T10:35:24.271Z,70.04
2023-03-27T10:36:24.703Z,65.36
2023-03-27T10:37:24.668Z,66.11
2023-03-27T10:38:24.694Z,69.91
2023-03-27T10:39:25.529Z,65.59
2023-03-27T10:40:25.349Z,57.29
2023-03-27T10:41:31.599Z,58.82
2023-03-27T10:42:25.595Z,53.57
2023-03-27T10:43:24.648Z,51.10
2023-03-27T10:44:24.590Z,53.04
2023-03-27T10:45:25.462Z,53.67
2023-03-27T10:46:24.595Z,49.26
2023-03-27T10:47:25.275Z,50.57
2023-03-27T10:48:24.522Z,51.26
2023-03-27T10:49:24.524Z,47.74
2023-03-27T10:50:24.508Z,47.59
2023-03-27T10:51:26.575Z,46.51
2023-03-27T10:52:25.517Z,44.85
2023-03-27T10:53:24.608Z,45.79
2023-03-27T10:54:24.521Z,43.51
2023-03-27T10:55:24.444Z,43.18
2023-03-27T10:56:24.435Z,41.36
2023-03-27T10:57:24.393Z,47.82
2023-03-27T10:58:24.395Z,48.85
2023-03-27T11:00:25.371Z,49.60
2023-03-27T11:01:24.394Z,53.13
2023-03-27T11:02:24.312Z,51.62
2023-03-27T11:03:24.344Z,53.49
2023-03-27T11:03:47.542Z,49.82
2023-03-27T11:04:24.365Z,53.18
2023-03-27T11:05:24.286Z,52.95
2023-03-27T11:06:24.406Z,55.94
2023-03-27T11:07:24.263Z,56.71
2023-03-27T11:08:24.252Z,55.51
2023-03-27T11:09:24.969Z,55.13
2023-03-27T11:10:24.247Z,56.26
2023-03-27T11:11:24.207Z,55.18
2023-03-27T11:12:24.170Z,52.27
2023-03-27T11:13:24.192Z,45.98
2023-03-27T11:14:24.169Z,45.31
2023-03-27T11:15:24.208Z,47.78
2023-03-27T11:16:23.948Z,46.12
2023-03-27T11:17:23.914Z,49.75
2023-03-27T11:18:25.790Z,46.60
2023-03-27T11:19:24.093Z,45.75
2023-03-27T11:20:26.261Z,47.82
2023-03-27T11:21:23.897Z,50.26
2023-03-27T11:22:24.035Z,52.97
2023-03-27T11:23:23.900Z,53.95
2023-03-27T11:24:23.900Z,56.15
2023-03-27T11:25:24.070Z,57.82
2023-03-27T11:26:23.285Z,58.47
2023-03-27T11:27:23.965Z,58.39
2023-03-27T11:28:23.977Z,57.67
2023-03-27T11:29:23.328Z,57.36
2023-03-27T11:30:23.359Z,57.88
2023-03-27T11:31:23.952Z,58.16
2023-03-27T11:32:23.429Z,59.57
2023-03-27T11:33:23.872Z,59.80
2023-03-27T11:34:28.889Z,55.98
2023-03-27T11:35:24.877Z,55.13
2023-03-27T11:36:23.855Z,53.00
2023-03-27T11:37:23.863Z,53.54
2023-03-27T11:38:23.588Z,47.98
2023-03-27T11:39:23.819Z,48.36
2023-03-27T11:40:24.516Z,49.33
2023-03-27T11:41:23.788Z,48.34
2023-03-27T11:42:23.782Z,46.64
2023-03-27T11:43:24.509Z,47.44
2023-03-27T11:44:24.474Z,49.37
2023-03-27T11:45:24.476Z,48.10
2023-03-27T11:46:24.541Z,47.47
2023-03-27T11:47:24.382Z,49.25
2023-03-27T11:48:24.453Z,49.07
2023-03-27T11:49:24.410Z,49.19
2023-03-27T11:50:24.347Z,51.90
2023-03-27T11:51:23.693Z,52.31
2023-03-27T11:52:24.321Z,54.59
2023-03-27T11:53:24.333Z,54.41
2023-03-27T11:54:22.890Z,54.46
2023-03-27T11:55:23.605Z,55.95
2023-03-27T11:56:23.626Z,56.18
2023-03-27T11:57:23.631Z,60.29
2023-03-27T11:58:24.240Z,61.80
2023-03-27T11:59:23.562Z,61.02
2023-03-27T12:00:23.546Z,57.71
2023-03-27T12:01:23.527Z,53.67
2023-03-27T12:02:23.016Z,53.69
2023-03-27T12:03:23.568Z,54.08
2023-03-27T12:04:24.180Z,52.85
2023-03-27T12:05:23.459Z,49.21
2023-03-27T12:06:24.120Z,52.55
2023-03-27T12:07:35.172Z,49.37
2023-03-27T12:08:25.901Z,50.48
2023-03-27T12:09:23.443Z,48.83
2023-03-27T12:10:28.421Z,48.49
2023-03-27T12:11:24.378Z,49.79
2023-03-27T12:12:23.375Z,47.57
2023-03-27T12:13:28.815Z,50.56
2023-03-27T12:14:30.991Z,48.51
2023-03-27T12:15:24.337Z,50.68
2023-03-27T12:16:23.333Z,52.55
2023-03-27T12:17:23.996Z,52.59
2023-03-27T12:18:32.323Z,54.05
2023-03-27T12:19:28.885Z,53.28
2023-03-27T12:20:24.253Z,53.54
2023-03-27T12:21:23.250Z,55.41
2023-03-27T12:22:24.339Z,59.88
2023-03-27T12:23:23.188Z,63.32
2023-03-27T12:24:23.208Z,68.32
2023-03-27T12:25:22.956Z,88.95
2023-03-27T12:26:22.948Z,93.83
2023-03-27T12:27:22.954Z,91.30
2023-03-27T12:28:23.661Z,97.31
2023-03-27T12:29:24.454Z,99.48
2023-03-27T12:30:23.143Z,96.95
2023-03-27T12:31:23.129Z,99.99
2023-03-27T12:32:23.798Z,99.99
2023-03-27T12:33:23.066Z,99.99
2023-03-27T12:34:22.950Z,99.99
2023-03-27T12:35:23.098Z,99.27
2023-03-27T12:36:23.039Z,99.99
2023-03-27T12:37:23.259Z,99.18
2023-03-27T12:38:22.983Z,99.99
2023-03-27T12:39:22.990Z,99.99
2023-03-27T12:40:22.986Z,99.99
2023-03-27T12:41:22.960Z,99.99
2023-03-27T12:42:22.949Z,99.99
2023-03-27T12:43:23.604Z,99.99
2023-03-27T12:44:22.907Z,99.99
2023-03-27T12:45:22.928Z,99.99
2023-03-27T12:46:23.045Z,99.99
2023-03-27T12:47:23.125Z,99.99
2023-03-27T12:48:23.082Z,99.99
2023-03-27T12:49:22.830Z,99.99
2023-03-27T12:50:22.237Z,99.99
2023-03-27T12:51:23.491Z,99.99
2023-03-27T12:52:22.812Z,99.99
2023-03-27T12:53:22.812Z,99.99
2023-03-27T12:54:22.755Z,99.99
2023-03-27T12:55:22.775Z,97.96